Terminal Aerodrome Forecast
Issued by NWS

Home | Current Version | Previous Version | Text Only | Print | Product List | Glossary On
Versions: 1 2 3 4 5 6 7 8 9 10 11 12 13 14 15 16 17 18 19 20
964
FTUS45 KRIW 230524
TAFCOD
TAF
KCOD 230524Z 2306/2406 02006KT P6SM -SNRA SCT007 BKN019
     FM230900 35008KT P6SM VCSH SCT004 SCT010 BKN025
     FM231600 36011KT P6SM SCT006 BKN020
     FM240200 34010KT P6SM VCSH SCT007 BKN015
      AMD LTD TO CLD VIS AND WIND=

USA.gov is the U.S. government's official web portal to all federal, state and local government web resources and services.